Time;durP1;ratioP1;P1;durP2;ratioP2;P2;SDS_P1;SDS_P2;PMS_P1;PMS_P2;Temp;Humidity;BMP_temperature;BMP_pressure;BME280_temperature;BME280_humidity;BME280_pressure;Samples;Min_cycle;Max_cycle;Signal;HPM_P1;HPM_P2
2021/05/18 00:02:21;;;;;;;0.40;0.40;;;;;;;-144.31;100.00;74752.78;5103478;28;20031;-79
2021/05/18 00:04:46;;;;;;;0.40;0.40;;;;;;;-144.31;100.00;74746.81;5105254;28;20084;-78
2021/05/18 00:07:16;;;;;;;0.50;0.50;;;;;;;-144.31;100.00;74762.78;5100733;28;20079;-78
2021/05/18 00:12:27;;;;;;;0.50;0.50;;;;;;;-144.31;100.00;74770.75;5095495;28;20119;-78
2021/05/18 00:14:52;;;;;;;0.50;0.50;;;;;;;-144.31;100.00;74750.78;5094985;28;20056;-78
2021/05/18 00:17:18;;;;;;;0.43;0.43;;;;;;;-144.31;100.00;74738.81;5094807;28;20039;-77
2021/05/18 00:19:44;;;;;;;0.40;0.40;;;;;;;-144.31;100.00;74740.81;5094329;28;20032;-78
2021/05/18 00:22:09;;;;;;;0.50;0.50;;;;;;;-144.31;100.00;74726.84;5093533;28;20020;-78
2021/05/18 00:24:35;;;;;;;0.40;0.40;;;;;;;-144.31;100.00;74728.84;5093210;28;20577;-78
2021/05/18 00:27:03;;;;;;;0.43;0.43;;;;;;;-144.31;100.00;74734.81;5092955;28;20034;-78
2021/05/18 00:29:29;;;;;;;0.50;0.50;;;;;;;-144.31;100.00;74714.84;5091566;28;20019;-78
2021/05/18 00:31:55;;;;;;;0.50;0.50;;;;;;;-144.31;100.00;74710.84;5107302;28;20038;-78
2021/05/18 00:34:22;;;;;;;0.47;0.47;;;;;;;-144.31;100.00;74744.81;5094757;28;20028;-77
2021/05/18 00:36:48;;;;;;;;;;;;;;;-144.31;100.00;74794.72;5094196;28;20024;-77
2021/05/18 00:39:13;;;;;;;0.50;0.50;;;;;;;-144.31;100.00;74832.66;5092111;28;19923;-76
2021/05/18 00:41:39;;;;;;;0.50;0.50;;;;;;;-144.31;100.00;74846.66;5091626;28;20032;-77
2021/05/18 00:44:07;;;;;;;0.50;0.50;;;;;;;-144.31;100.00;74856.63;5092317;28;20024;-75
2021/05/18 00:46:32;;;;;;;0.50;0.50;;;;;;;-144.31;100.00;74874.59;5091280;28;20032;-75
2021/05/18 00:48:58;;;;;;;0.60;0.60;;;;;;;-144.31;100.00;74880.59;5092432;28;20035;-76
2021/05/18 00:51:25;;;;;;;0.60;0.60;;;;;;;-144.31;100.00;74886.59;5090347;28;20055;-76
2021/05/18 00:53:52;;;;;;;0.63;0.63;;;;;;;-144.31;100.00;74902.56;5091973;28;20658;-76
2021/05/18 00:56:34;;;;;;;0.57;0.57;;;;;;;-144.31;100.00;74914.53;5091834;28;20441;-76
2021/05/18 00:59:03;;;;;;;0.65;0.65;;;;;;;-144.31;100.00;74918.53;5091430;28;20024;-75
2021/05/18 01:01:30;;;;;;;0.60;0.60;;;;;;;-144.31;100.00;74920.53;5095336;28;20105;-77
2021/05/18 01:03:59;;;;;;;0.60;0.60;;;;;;;-144.31;100.00;74944.50;5096703;28;20541;-76
2021/05/18 01:08:55;;;;;;;0.68;0.68;;;;;;;-144.31;100.00;74944.50;5091557;28;20032;-77
2021/05/18 01:11:23;;;;;;;0.60;0.60;;;;;;;-144.31;100.00;74950.50;5090936;28;20583;-76
2021/05/18 01:14:03;;;;;;;0.60;0.60;;;;;;;-144.31;100.00;74954.47;5093881;28;20024;-77
2021/05/18 01:16:32;;;;;;;0.60;0.60;;;;;;;-144.31;100.00;74954.47;5092811;28;20123;-77
2021/05/18 01:18:58;;;;;;;0.60;0.60;;;;;;;-144.31;100.00;74958.47;5098976;28;20024;-77
2021/05/18 01:21:26;;;;;;;0.60;0.60;;;;;;;-144.31;100.00;74960.47;5096704;28;20286;-77
2021/05/18 01:23:55;;;;;;;0.60;0.60;;;;;;;-144.31;100.00;74948.50;5093273;28;20020;-77
2021/05/18 01:26:22;;;;;;;0.50;0.50;;;;;;;-144.31;100.00;74958.47;5093230;28;20046;-77
2021/05/18 01:28:47;;;;;;;0.60;0.60;;;;;;;-144.31;100.00;74956.47;5093373;28;20487;-77
2021/05/18 01:31:17;;;;;;;0.50;0.50;;;;;;;-144.31;100.00;74960.47;5093399;28;20112;-77
2021/05/18 01:33:45;;;;;;;0.60;0.60;;;;;;;-144.31;100.00;74958.47;5093265;28;20108;-77
2021/05/18 01:36:12;;;;;;;0.60;0.60;;;;;;;-144.31;100.00;74960.47;5092102;28;20093;-77
2021/05/18 01:38:46;;;;;;;0.60;0.60;;;;;;;-144.31;100.00;74952.50;5090542;28;20114;-77
2021/05/18 01:43:58;;;;;;;0.60;0.60;;;;;;;-144.31;100.00;74942.50;5090927;28;20403;-77
2021/05/18 01:46:28;;;;;;;0.50;0.50;;;;;;;-144.31;100.00;74942.50;5092094;28;20024;-77
2021/05/18 01:48:59;;;;;;;0.60;0.60;;;;;;;-144.31;100.00;74946.50;5091943;28;20038;-77
2021/05/18 01:51:46;;;;;;;0.60;0.60;;;;;;;-144.31;100.00;74938.50;5092453;28;20386;-77
2021/05/18 01:54:23;;;;;;;0.60;0.60;;;;;;;-144.31;100.00;74946.50;5093752;28;20020;-77
2021/05/18 01:57:05;;;;;;;0.60;0.60;;;;;;;-144.31;100.00;74952.50;5092902;28;20106;-76
2021/05/18 01:59:33;;;;;;;0.50;0.50;;;;;;;-144.31;100.00;74950.50;5083964;28;20077;-77
2021/05/18 02:02:04;;;;;;;0.60;0.60;;;;;;;-144.31;100.00;74950.50;5091392;28;20436;-77
2021/05/18 02:04:35;;;;;;;0.70;0.70;;;;;;;-144.31;100.00;74954.47;5091396;28;20028;-77
2021/05/18 02:07:23;;;;;;;0.50;0.50;;;;;;;-144.31;100.00;74958.47;5092590;28;20387;-77
2021/05/18 02:09:51;;;;;;;0.60;0.60;;;;;;;-144.31;100.00;74962.47;5092684;28;20027;-77
2021/05/18 02:12:19;;;;;;;0.50;0.50;;;;;;;-144.31;100.00;74956.47;5093405;28;20459;-77
2021/05/18 02:14:48;;;;;;;0.50;0.50;;;;;;;-144.31;100.00;74954.47;5092103;28;20114;-77
2021/05/18 02:17:24;;;;;;;0.50;0.50;;;;;;;-144.31;100.00;74968.47;5091546;28;20130;-77
2021/05/18 02:25:29;;;;;;;0.50;0.50;;;;;;;-144.31;100.00;74970.47;5091670;28;20093;-77
2021/05/18 02:27:56;;;;;;;0.60;0.60;;;;;;;-144.31;100.00;74974.47;5093390;28;20383;-77
2021/05/18 02:30:23;;;;;;;0.57;0.57;;;;;;;-144.31;100.00;74966.47;5092074;28;20390;-77
2021/05/18 02:32:49;;;;;;;0.57;0.57;;;;;;;-144.31;100.00;74970.47;5090976;28;20032;-77
2021/05/18 02:35:16;;;;;;;0.60;0.60;;;;;;;-144.31;100.00;74970.47;5093242;28;20020;-77
2021/05/18 02:37:44;;;;;;;0.60;0.60;;;;;;;-144.31;100.00;74976.44;5091388;28;20129;-77
2021/05/18 02:40:14;;;;;;;;;;;;;;;-144.31;100.00;74980.44;5093026;28;20051;-77
2021/05/18 02:42:40;;;;;;;0.50;0.50;;;;;;;-144.31;100.00;74982.44;5092274;28;19960;-77
2021/05/18 02:45:11;;;;;;;0.60;0.60;;;;;;;-144.31;100.00;74978.44;5091795;28;20459;-78
2021/05/18 02:50:21;;;;;;;0.60;0.60;;;;;;;-144.31;100.00;74978.44;5092790;28;20035;-77
2021/05/18 02:52:46;;;;;;;0.70;0.70;;;;;;;-144.31;100.00;74978.44;5093361;28;20114;-77
2021/05/18 02:55:20;;;;;;;0.60;0.60;;;;;;;-144.31;100.00;74978.44;5092505;28;20024;-77
2021/05/18 02:57:47;;;;;;;0.60;0.60;;;;;;;-144.31;100.00;74976.44;5091799;28;20028;-77
2021/05/18 03:00:16;;;;;;;0.60;0.60;;;;;;;-144.31;100.00;74976.44;5091489;28;20133;-77
2021/05/18 03:02:41;;;;;;;0.60;0.60;;;;;;;-144.31;100.00;58022.63;5092209;28;20031;-78
2021/05/18 03:05:08;;;;;;;0.60;0.60;;;;;;;-144.31;100.00;58022.63;5093313;28;20050;-77
2021/05/18 03:07:33;;;;;;;0.60;0.60;;;;;;;-144.31;100.00;58022.63;5093135;28;20036;-77
2021/05/18 03:09:59;;;;;;;0.50;0.50;;;;;;;-144.31;100.00;58022.63;5093601;28;20265;-77
2021/05/18 03:12:24;;;;;;;0.60;0.60;;;;;;;-144.31;100.00;58022.63;5091247;28;20030;-77
2021/05/18 03:14:53;;;;;;;0.80;0.80;;;;;;;-144.31;100.00;58022.63;5093029;28;20028;-77
2021/05/18 03:17:18;;;;;;;0.65;0.65;;;;;;;-144.31;100.00;58022.63;5092923;28;20035;-77
2021/05/18 03:19:44;;;;;;;0.80;0.80;;;;;;;-144.31;100.00;58022.63;5102873;28;20375;-77
2021/05/18 03:22:09;;;;;;;0.70;0.70;;;;;;;-144.31;100.00;58022.63;5104572;28;20044;-77
2021/05/18 03:24:41;;;;;;;0.70;0.70;;;;;;;-144.31;100.00;58022.63;5103410;28;20028;-77
2021/05/18 03:27:10;;;;;;;0.60;0.60;;;;;;;-144.31;100.00;58022.63;5093732;28;20099;-78
2021/05/18 03:29:36;;;;;;;0.55;0.55;;;;;;;-144.31;100.00;58022.63;5092436;28;20024;-77
2021/05/18 03:34:48;;;;;;;0.73;0.73;;;;;;;-144.31;100.00;58022.63;5093653;28;20446;-77
2021/05/18 03:40:14;;;;;;;0.70;0.70;;;;;;;-144.31;100.00;58022.63;5071786;28;20047;-77
2021/05/18 03:42:45;;;;;;;0.60;0.60;;;;;;;-144.31;100.00;58022.63;5100173;28;20032;-77
2021/05/18 03:45:15;;;;;;;0.70;0.70;;;;;;;-144.31;100.00;58022.63;5093257;28;20064;-76
2021/05/18 03:53:31;;;;;;;0.77;0.77;;;;;;;-144.31;100.00;58022.63;5092827;28;20546;-77
2021/05/18 03:58:54;;;;;;;0.73;0.73;;;;;;;-144.31;100.00;58022.63;5093396;28;20035;-77
2021/05/18 04:17:23;;;;;;;0.80;0.80;;;;;;;-144.31;100.00;58022.63;5092494;28;19923;-76
2021/05/18 04:20:07;;;;;;;0.70;0.70;;;;;;;-144.31;100.00;58022.63;5088270;28;20144;-76
2021/05/18 04:23:05;;;;;;;0.70;0.70;;;;;;;-144.31;100.00;58022.63;5091935;28;20111;-78
2021/05/18 04:25:57;;;;;;;0.63;0.63;;;;;;;-144.31;100.00;58022.63;5084096;28;20028;-78
2021/05/18 04:42:16;;;;;;;;;;;;;;;;;;;;;
2021/05/18 04:49:53;;;;;;;0.50;0.50;;;;;;;-144.31;100.00;58022.63;5092807;28;20055;-76
2021/05/18 04:52:26;;;;;;;0.60;0.60;;;;;;;-144.31;100.00;58022.63;5092686;28;20086;-77
2021/05/18 05:02:58;;;;;;;0.50;0.50;;;;;;;-144.31;100.00;58022.63;5092421;28;20047;-77
2021/05/18 05:15:35;;;;;;;0.60;0.60;;;;;;;-144.31;100.00;58022.63;5092221;28;20018;-77
2021/05/18 05:18:02;;;;;;;0.47;0.47;;;;;;;-144.31;100.00;58022.63;5092337;28;20024;-76
2021/05/18 05:20:27;;;;;;;;;;;;;;;-144.31;100.00;58022.63;5091793;28;20344;-76
2021/05/18 05:22:53;;;;;;;0.60;0.60;;;;;;;-144.31;100.00;58022.63;5091040;28;20599;-76
2021/05/18 05:25:18;;;;;;;0.47;0.47;;;;;;;-144.31;100.00;58022.63;5090134;28;20032;-76
2021/05/18 05:27:44;;;;;;;0.50;0.50;;;;;;;-144.31;100.00;58022.63;5092218;28;20106;-76
2021/05/18 05:30:10;;;;;;;0.60;0.60;;;;;;;-144.31;100.00;58022.63;5091564;28;20035;-76
2021/05/18 05:32:35;;;;;;;0.50;0.50;;;;;;;-144.31;100.00;58022.63;5090822;28;20478;-76
2021/05/18 05:35:01;;;;;;;0.68;0.68;;;;;;;-144.31;100.00;58022.63;5092196;28;20428;-77
2021/05/18 05:37:27;;;;;;;0.40;0.40;;;;;;;-144.31;100.00;58022.63;5091293;28;20082;-76
2021/05/18 05:39:53;;;;;;;0.50;0.50;;;;;;;-144.31;100.00;58022.63;5091322;28;20032;-77
2021/05/18 05:42:20;;;;;;;0.40;0.40;;;;;;;-144.31;100.00;58022.63;5094338;28;20490;-78
2021/05/18 05:44:45;;;;;;;0.50;0.50;;;;;;;-144.31;100.00;58022.63;5097005;28;20032;-78
2021/05/18 05:47:11;;;;;;;0.47;0.47;;;;;;;-144.31;100.00;58022.63;5098604;28;20032;-77
2021/05/18 05:49:39;;;;;;;0.43;0.43;;;;;;;-144.31;100.00;58022.63;5101597;28;20036;-77
2021/05/18 05:52:05;;;;;;;0.40;0.40;;;;;;;-144.31;100.00;58022.63;5100422;28;20032;-78
2021/05/18 05:54:32;;;;;;;0.60;0.60;;;;;;;-144.31;100.00;58022.63;5092839;28;20529;-77
2021/05/18 05:56:59;;;;;;;0.52;0.52;;;;;;;-144.31;100.00;58022.63;5090373;28;20113;-77
2021/05/18 05:59:27;;;;;;;0.52;0.52;;;;;;;-144.31;100.00;58022.63;5083458;28;20036;-77
2021/05/18 06:01:52;;;;;;;0.50;0.50;;;;;;;-144.31;100.00;58022.63;5092880;28;20027;-77
2021/05/18 06:04:18;;;;;;;0.47;0.47;;;;;;;-144.31;100.00;58022.63;5107542;28;20028;-77
2021/05/18 06:06:43;;;;;;;0.50;0.50;;;;;;;-144.31;100.00;58022.63;5093629;28;20031;-77
2021/05/18 06:09:10;;;;;;;0.50;0.50;;;;;;;-144.31;100.00;58022.63;5089775;28;20081;-77
2021/05/18 06:47:09;;;;;;;0.60;0.60;;;;;;;-144.31;100.00;58022.63;5097113;28;20096;-77
2021/05/18 06:49:38;;;;;;;0.60;0.60;;;;;;;-144.31;100.00;58022.63;5089534;28;20028;-74
2021/05/18 06:52:04;;;;;;;0.60;0.60;;;;;;;-144.31;100.00;58022.63;5090640;28;20035;-76
2021/05/18 06:54:30;;;;;;;0.50;0.50;;;;;;;-144.31;100.00;58022.63;5088983;28;20028;-76
2021/05/18 06:56:58;;;;;;;0.60;0.60;;;;;;;-144.31;100.00;58022.63;5102664;28;20028;-76
2021/05/18 07:01:49;;;;;;;0.60;0.60;;;;;;;-144.31;100.00;58022.63;5085580;28;20503;-75
2021/05/18 07:04:16;;;;;;;0.60;0.60;;;;;;;-144.31;100.00;58022.63;5086073;28;20024;-76
2021/05/18 07:09:11;;;;;;;0.60;0.60;;;;;;;-144.31;100.00;58022.63;5092776;28;20036;-77
2021/05/18 07:11:37;;;;;;;0.60;0.60;;;;;;;-144.31;100.00;58022.63;5091154;28;20145;-78
2021/05/18 07:14:03;;;;;;;0.60;0.60;;;;;;;-144.31;100.00;58022.63;5091736;28;20111;-77
2021/05/18 07:16:28;;;;;;;0.60;0.60;;;;;;;-144.31;100.00;58022.63;5089554;28;20016;-78
2021/05/18 07:18:54;;;;;;;0.50;0.50;;;;;;;-144.31;100.00;58022.63;5081032;28;20051;-78
2021/05/18 07:21:22;;;;;;;0.60;0.60;;;;;;;-144.31;100.00;58022.63;5097632;28;20073;-77
2021/05/18 07:23:48;;;;;;;0.60;0.60;;;;;;;-144.31;100.00;58022.63;5095421;28;20066;-77
2021/05/18 07:26:16;;;;;;;0.60;0.60;;;;;;;-144.31;100.00;58022.63;5098795;28;20038;-80
2021/05/18 07:28:41;;;;;;;;;;;;;;;-144.31;100.00;58022.63;5099124;28;20267;-78
2021/05/18 07:31:07;;;;;;;0.52;0.52;;;;;;;-144.31;100.00;58022.63;5098145;28;19911;-79
2021/05/18 07:33:34;;;;;;;0.55;0.55;;;;;;;-144.31;100.00;58022.63;5098696;28;20028;-79
2021/05/18 07:36:07;;;;;;;0.60;0.60;;;;;;;-144.31;100.00;58022.63;5101583;28;20112;-77
2021/05/18 07:38:33;;;;;;;0.50;0.50;;;;;;;-144.31;100.00;58022.63;5098948;28;20036;-79
2021/05/18 07:40:59;;;;;;;0.50;0.50;;;;;;;-144.31;100.00;58022.63;5101265;28;20474;-80
2021/05/18 07:43:27;;;;;;;0.60;0.60;;;;;;;-144.31;100.00;58022.63;5090400;28;20038;-78
2021/05/18 07:45:58;;;;;;;0.60;0.60;;;;;;;-144.31;100.00;58022.63;5097746;28;20109;-78
2021/05/18 07:48:40;;;;;;;0.43;0.43;;;;;;;-144.31;100.00;58022.63;5099368;28;20028;-77
2021/05/18 07:59:16;;;;;;;0.60;0.60;;;;;;;-144.31;100.00;58022.63;5094494;28;20043;-77
2021/05/18 08:07:10;;;;;;;0.50;0.50;;;;;;;-144.31;100.00;58022.63;5085561;28;20038;-76
2021/05/18 08:09:41;;;;;;;0.57;0.57;;;;;;;-144.31;100.00;58022.63;5093013;28;20032;-76
2021/05/18 08:12:07;;;;;;;0.60;0.60;;;;;;;-144.31;100.00;58022.63;5086655;28;20031;-75
2021/05/18 08:14:36;;;;;;;0.40;0.40;;;;;;;-144.31;100.00;58022.63;5086453;28;20028;-76
2021/05/18 08:17:20;;;;;;;0.40;0.40;;;;;;;-144.31;100.00;58022.63;5085723;28;20043;-76
2021/05/18 08:58:55;;;;;;;0.40;0.40;;;;;;;-144.31;100.00;58022.63;5092853;28;20112;-76
2021/05/18 10:35:53;;;;;;;0.50;0.50;;;;;;;-144.31;100.00;58022.63;5089882;28;20020;-77
2021/05/18 10:38:28;;;;;;;0.40;0.40;;;;;;;-144.31;100.00;58022.63;5079944;28;20407;-76
2021/05/18 10:41:13;;;;;;;0.47;0.47;;;;;;;-144.31;100.00;58022.63;5087729;28;20016;-77
2021/05/18 10:43:39;;;;;;;0.60;0.60;;;;;;;-144.31;100.00;58022.63;5094769;28;20133;-77
2021/05/18 10:46:06;;;;;;;0.50;0.50;;;;;;;-144.31;100.00;58022.63;5098373;28;20027;-80
2021/05/18 10:48:32;;;;;;;0.50;0.50;;;;;;;-144.31;100.00;58022.63;5098025;28;20020;-78
2021/05/18 10:51:17;;;;;;;0.40;0.40;;;;;;;-144.31;100.00;58022.63;5097908;28;20024;-78
2021/05/18 10:54:05;;;;;;;0.60;0.60;;;;;;;-144.31;100.00;58022.63;5094473;28;20570;-77
2021/05/18 10:56:58;;;;;;;0.47;0.47;;;;;;;-144.31;100.00;58022.63;5089751;28;20109;-73
2021/05/18 10:59:29;;;;;;;0.40;0.40;;;;;;;-144.31;100.00;58022.63;5090125;28;20045;-77
2021/05/18 11:02:14;;;;;;;0.45;0.45;;;;;;;-144.31;100.00;58022.63;5092031;28;20579;-77
2021/05/18 11:05:06;;;;;;;0.40;0.40;;;;;;;-144.31;100.00;58022.63;5086330;28;20051;-77
2021/05/18 11:07:38;;;;;;;0.50;0.50;;;;;;;-144.31;100.00;58022.63;5078526;28;20036;-77
2021/05/18 11:10:14;;;;;;;0.40;0.40;;;;;;;-144.31;100.00;58022.63;5091345;28;20036;-78
2021/05/18 11:12:41;;;;;;;0.30;0.30;;;;;;;-144.31;100.00;58022.63;5092339;28;20074;-77
2021/05/18 11:15:15;;;;;;;0.40;0.40;;;;;;;-144.31;100.00;58022.63;5088920;28;20115;-77
2021/05/18 11:17:48;;;;;;;0.40;0.40;;;;;;;-144.31;100.00;58022.63;5095286;28;20043;-78
2021/05/18 11:21:06;;;;;;;0.40;0.40;;;;;;;-144.31;100.00;58022.63;5092865;28;20032;-78
2021/05/18 11:25:54;;;;;;;0.30;0.30;;;;;;;-144.31;100.00;58022.63;5092231;28;20477;-77
2021/05/18 11:28:20;;;;;;;0.40;0.40;;;;;;;-144.31;100.00;58022.63;5093292;28;20028;-77
2021/05/18 11:31:08;;;;;;;0.30;0.30;;;;;;;-144.31;100.00;58022.63;5092328;28;20027;-75
2021/05/18 11:33:42;;;;;;;0.30;0.30;;;;;;;-144.31;100.00;58022.63;5076883;28;20067;-76
2021/05/18 11:36:12;;;;;;;0.43;0.43;;;;;;;-144.31;100.00;58022.63;5104874;28;20024;-79
2021/05/18 11:38:39;;;;;;;0.20;0.20;;;;;;;-144.31;100.00;58022.63;5091971;28;20028;-79
2021/05/18 11:41:07;;;;;;;0.20;0.20;;;;;;;-144.31;100.00;58022.63;5091894;28;20043;-77
2021/05/18 11:43:37;;;;;;;0.20;0.20;;;;;;;-144.31;100.00;58022.63;5088802;28;20488;-77
2021/05/18 11:46:08;;;;;;;0.30;0.30;;;;;;;-144.31;100.00;58022.63;5074720;28;20044;-76
2021/05/18 11:48:34;;;;;;;0.40;0.40;;;;;;;-144.31;100.00;58022.63;5090932;28;20103;-78
2021/05/18 11:51:12;;;;;;;0.47;0.47;;;;;;;-144.31;100.00;58022.63;5094381;28;20061;-78
2021/05/18 11:53:46;;;;;;;0.40;0.40;;;;;;;-144.31;100.00;58022.63;5097550;28;20032;-78
2021/05/18 11:56:22;;;;;;;0.20;0.20;;;;;;;-144.31;100.00;58022.63;5094258;28;20077;-75
2021/05/18 11:58:48;;;;;;;0.10;0.10;;;;;;;-144.31;100.00;58022.63;5096477;28;20085;-77
2021/05/18 12:01:13;;;;;;;0.20;0.20;;;;;;;-144.31;100.00;58022.63;5096561;28;20107;-76
2021/05/18 12:03:39;;;;;;;0.20;0.20;;;;;;;-144.31;100.00;58022.63;5092308;28;20515;-75
2021/05/18 12:06:06;;;;;;;0.30;0.30;;;;;;;-144.31;100.00;58022.63;5099131;28;20016;-76
2021/05/18 12:08:34;;;;;;;;;;;;;;;-144.31;100.00;58022.63;5103317;28;20085;-76
2021/05/18 12:11:16;;;;;;;0.22;0.22;;;;;;;-144.31;100.00;58022.63;5098844;28;20463;-76
2021/05/18 12:13:43;;;;;;;0.50;0.50;;;;;;;-144.31;100.00;58022.63;5091323;28;20042;-76
2021/05/18 12:16:10;;;;;;;0.28;0.28;;;;;;;-144.31;100.00;58022.63;5093710;28;20016;-77
2021/05/18 12:18:38;;;;;;;0.30;0.30;;;;;;;-144.31;100.00;58022.63;5092073;28;20039;-76
2021/05/18 12:21:06;;;;;;;0.30;0.30;;;;;;;-144.31;100.00;58022.63;5091789;28;20052;-74
2021/05/18 12:23:32;;;;;;;0.40;0.40;;;;;;;-144.31;100.00;58022.63;5106183;28;20024;-73
2021/05/18 12:26:16;;;;;;;0.63;0.63;;;;;;;-144.31;100.00;58022.63;5100860;28;20072;-74
2021/05/18 12:29:08;;;;;;;0.50;0.50;;;;;;;-144.31;100.00;58022.63;5107374;28;20036;-77
2021/05/18 12:31:35;;;;;;;0.40;0.40;;;;;;;-144.31;100.00;58022.63;5091920;28;20040;-75
2021/05/18 12:34:03;;;;;;;0.50;0.50;;;;;;;-144.31;100.00;58022.63;5092762;28;20114;-75
2021/05/18 12:36:30;;;;;;;0.43;0.43;;;;;;;-144.31;100.00;58022.63;5092681;28;20082;-75
2021/05/18 12:39:12;;;;;;;0.40;0.40;;;;;;;-144.31;100.00;58022.63;5093590;28;20522;-77
2021/05/18 12:41:47;;;;;;;0.43;0.43;;;;;;;-144.31;100.00;58022.63;5092102;28;20069;-77
2021/05/18 12:44:13;;;;;;;0.50;0.40;;;;;;;-144.31;100.00;58022.63;5100619;28;20060;-78
2021/05/18 12:46:51;;;;;;;0.30;0.30;;;;;;;-144.31;100.00;58022.63;5100415;28;20063;-77
2021/05/18 12:49:30;;;;;;;0.30;0.30;;;;;;;-144.31;100.00;58022.63;5098019;28;20028;-77
2021/05/18 12:52:11;;;;;;;0.30;0.30;;;;;;;-144.31;100.00;58022.63;5087837;28;20101;-77
2021/05/18 12:54:57;;;;;;;0.15;0.15;;;;;;;-144.31;100.00;58022.63;5075880;28;20024;-76
2021/05/18 12:57:25;;;;;;;0.20;0.20;;;;;;;-144.31;100.00;58022.63;5083380;28;20135;-76
2021/05/18 13:00:27;;;;;;;0.30;0.30;;;;;;;-144.31;100.00;58022.63;5094062;28;20095;-77
2021/05/18 13:02:55;;;;;;;0.20;0.20;;;;;;;-144.31;100.00;58022.63;5069102;28;20510;-75
2021/05/18 13:05:30;;;;;;;0.30;0.30;;;;;;;-144.31;100.00;58022.63;5091864;28;20482;-77
2021/05/18 13:08:09;;;;;;;0.30;0.30;;;;;;;-144.31;100.00;58022.63;5092348;28;20513;-76
2021/05/18 13:13:08;;;;;;;0.20;0.20;;;;;;;-144.31;100.00;58022.63;5092528;28;20089;-75
2021/05/18 13:15:37;;;;;;;0.10;0.10;;;;;;;-144.31;100.00;58022.63;5082272;28;20024;-76
2021/05/18 13:18:06;;;;;;;0.10;0.10;;;;;;;-144.31;100.00;58022.63;5088500;28;20503;-76
2021/05/18 13:20:56;;;;;;;0.10;0.10;;;;;;;-144.31;100.00;58022.63;5090641;28;20050;-75
2021/05/18 13:28:37;;;;;;;0.20;0.20;;;;;;;-144.31;100.00;58022.63;5089675;28;20070;-75
2021/05/18 13:31:03;;;;;;;0.20;0.20;;;;;;;-144.31;100.00;58022.63;5090158;28;20067;-76
2021/05/18 13:33:31;;;;;;;0.30;0.30;;;;;;;-144.31;100.00;58022.63;5090328;28;20797;-73
2021/05/18 13:35:56;;;;;;;0.32;0.30;;;;;;;-144.31;100.00;58022.63;5089357;28;20288;-74
2021/05/18 13:38:24;;;;;;;0.40;0.40;;;;;;;-144.31;100.00;58022.63;5088218;28;20024;-74
2021/05/18 13:40:50;;;;;;;0.20;0.20;;;;;;;-144.31;100.00;58022.63;5087499;28;20123;-75
2021/05/18 13:43:16;;;;;;;0.50;0.50;;;;;;;-144.31;100.00;58022.63;5089319;28;20121;-74
2021/05/18 13:45:42;;;;;;;0.10;0.10;;;;;;;-144.31;100.00;58022.63;5084735;28;20031;-74
2021/05/18 13:48:08;;;;;;;0.20;0.20;;;;;;;-144.31;100.00;58022.63;5088494;28;20036;-74
2021/05/18 13:50:34;;;;;;;0.30;0.30;;;;;;;-144.31;100.00;58022.63;5089713;28;20024;-74
2021/05/18 13:53:00;;;;;;;0.20;0.20;;;;;;;-144.31;100.00;58022.63;5088218;28;20028;-74
2021/05/18 13:55:25;;;;;;;0.20;0.20;;;;;;;-144.31;100.00;58022.63;5087533;28;20024;-74
2021/05/18 13:57:51;;;;;;;0.38;0.38;;;;;;;-144.31;100.00;58022.63;5087830;28;20486;-74
2021/05/18 14:00:18;;;;;;;0.40;0.40;;;;;;;-144.31;100.00;58022.63;5088801;28;20577;-73
2021/05/18 14:02:46;;;;;;;0.30;0.30;;;;;;;-144.31;100.00;58022.63;5089191;28;20402;-73
2021/05/18 14:05:13;;;;;;;;;;;;;;;-144.31;100.00;58022.63;5086868;28;20028;-74
2021/05/18 14:10:54;;;;;;;0.43;0.43;;;;;;;-144.31;100.00;58022.63;5074597;28;20110;-75
2021/05/18 14:13:21;;;;;;;0.40;0.40;;;;;;;-144.31;100.00;58022.63;5089232;28;20054;-75
2021/05/18 14:15:46;;;;;;;0.40;0.40;;;;;;;-144.31;100.00;58022.63;5087677;28;20028;-74
2021/05/18 14:18:12;;;;;;;0.55;0.55;;;;;;;-144.31;100.00;58022.63;5081756;28;20027;-75
2021/05/18 14:20:39;;;;;;;0.45;0.45;;;;;;;-144.31;100.00;58022.63;5088628;28;20032;-73
2021/05/18 14:23:05;;;;;;;0.60;0.60;;;;;;;-144.31;100.00;58022.63;5087049;28;20106;-71
2021/05/18 14:25:31;;;;;;;0.50;0.50;;;;;;;-144.31;100.00;58022.63;5083160;28;20206;-74
2021/05/18 14:27:57;;;;;;;0.60;0.60;;;;;;;-144.31;100.00;58022.63;5085955;28;20036;-74
2021/05/18 14:30:23;;;;;;;0.70;0.70;;;;;;;-144.31;100.00;58022.63;5084755;28;20032;-75
2021/05/18 14:32:50;;;;;;;0.50;0.50;;;;;;;-144.31;100.00;58022.63;5073008;28;20478;-74
2021/05/18 14:35:16;;;;;;;0.60;0.60;;;;;;;-144.31;100.00;58022.63;5085690;28;20099;-74
2021/05/18 14:37:44;;;;;;;0.55;0.55;;;;;;;-144.31;100.00;58022.63;5073035;28;20161;-73
2021/05/18 14:42:52;;;;;;;1.00;0.70;;;;;;;-144.31;100.00;58022.63;5074736;28;20435;-76
2021/05/18 14:45:21;;;;;;;0.63;0.63;;;;;;;-144.31;100.00;58022.63;5078718;28;20031;-79
2021/05/18 14:56:06;;;;;;;0.90;0.90;;;;;;;-144.31;100.00;58022.63;5084299;28;20427;-73
2021/05/18 14:58:32;;;;;;;0.80;0.80;;;;;;;-144.31;100.00;58022.63;5085902;28;20427;-74
2021/05/18 15:00:57;;;;;;;0.60;0.60;;;;;;;-144.31;100.00;58022.63;5087423;28;20341;-73
2021/05/18 15:03:23;;;;;;;0.40;0.40;;;;;;;-144.31;100.00;58022.63;5086964;28;20420;-72
2021/05/18 15:05:48;;;;;;;0.50;0.50;;;;;;;-144.31;100.00;58022.63;5088942;28;20126;-74
2021/05/18 15:08:13;;;;;;;0.50;0.50;;;;;;;-144.31;100.00;58022.63;5087044;28;20479;-74
2021/05/18 15:10:40;;;;;;;0.55;0.32;;;;;;;-144.31;100.00;58022.63;5086806;28;20093;-73
2021/05/18 15:13:06;;;;;;;0.25;0.25;;;;;;;-144.31;100.00;58022.63;5086762;28;20024;-73
2021/05/18 15:15:31;;;;;;;0.38;0.38;;;;;;;-144.31;100.00;58022.63;5086579;28;20047;-73
2021/05/18 15:17:58;;;;;;;0.30;0.30;;;;;;;-144.31;100.00;58022.63;5087509;28;20027;-75
2021/05/18 15:20:24;;;;;;;;;;;;;;;-144.31;100.00;58022.63;5085925;28;20043;-74
2021/05/18 15:22:49;;;;;;;0.20;0.20;;;;;;;-144.31;100.00;58022.63;5086550;28;19912;-74
2021/05/18 15:25:15;;;;;;;0.20;0.20;;;;;;;-144.31;100.00;58022.63;5087472;28;20106;-75
2021/05/18 15:27:41;;;;;;;0.10;0.10;;;;;;;-144.31;100.00;58022.63;5081596;28;20039;-76
2021/05/18 15:30:09;;;;;;;0.00;0.00;;;;;;;-144.31;100.00;58022.63;5087618;28;20032;-76
2021/05/18 15:32:35;;;;;;;0.15;0.15;;;;;;;-144.31;100.00;58022.63;5084355;28;20027;-77
2021/05/18 15:35:00;;;;;;;0.20;0.20;;;;;;;-144.31;100.00;58022.63;5082487;28;20024;-75
2021/05/18 15:37:25;;;;;;;0.30;0.30;;;;;;;-144.31;100.00;58022.63;5077267;28;20035;-76
2021/05/18 15:39:51;;;;;;;0.20;0.20;;;;;;;-144.31;100.00;58022.63;5081702;28;20012;-76
2021/05/18 15:42:16;;;;;;;0.30;0.30;;;;;;;-144.31;100.00;58022.63;5077672;28;20245;-75
2021/05/18 15:44:42;;;;;;;0.30;0.30;;;;;;;-144.31;100.00;58022.63;5081663;28;20073;-74
2021/05/18 15:47:07;;;;;;;0.50;0.50;;;;;;;-144.31;100.00;58022.63;5080472;28;20043;-76
2021/05/18 15:49:34;;;;;;;0.50;0.50;;;;;;;-144.31;100.00;58022.63;5067290;28;20114;-77
2021/05/18 15:52:00;;;;;;;0.20;0.20;;;;;;;-144.31;100.00;58022.63;5074917;28;20070;-75
2021/05/18 15:54:28;;;;;;;0.20;0.20;;;;;;;-144.31;100.00;58022.63;5081907;28;20030;-75
2021/05/18 15:56:56;;;;;;;0.20;0.20;;;;;;;-144.31;100.00;58022.63;5080044;28;20024;-74
2021/05/18 15:59:23;;;;;;;0.45;0.45;;;;;;;-144.31;100.00;58022.63;5081694;28;20035;-76
2021/05/18 16:01:49;;;;;;;0.30;0.30;;;;;;;-144.31;100.00;58022.63;5083362;28;20032;-77
2021/05/18 16:04:14;;;;;;;0.30;0.30;;;;;;;-144.31;100.00;58022.63;5073487;28;20040;-77
2021/05/18 16:06:44;;;;;;;0.50;0.50;;;;;;;-144.31;100.00;58022.63;5087916;28;20028;-75
2021/05/18 16:09:11;;;;;;;0.20;0.20;;;;;;;-144.31;100.00;58022.63;5084487;28;20107;-76
2021/05/18 16:11:37;;;;;;;0.22;0.22;;;;;;;-144.31;100.00;58022.63;5083855;28;20024;-75
2021/05/18 16:14:03;;;;;;;0.28;0.28;;;;;;;-144.31;100.00;58022.63;5085031;28;20027;-76
2021/05/18 16:16:29;;;;;;;0.30;0.30;;;;;;;-144.31;100.00;58022.63;5090142;28;20034;-75
2021/05/18 16:18:55;;;;;;;0.30;0.30;;;;;;;-144.31;100.00;58022.63;5097259;28;20028;-79